sensor_id;sensor_type;location;lat;lon;timestamp;P1;durP1;ratioP1;P2;durP2;ratioP2
13849;SDS011;6995;52.618;13.488;2023-07-29T00:03:23;28.83;;;27.02;;
13849;SDS011;6995;52.618;13.488;2023-07-29T00:05:49;29.80;;;28.10;;
13849;SDS011;6995;52.618;13.488;2023-07-29T00:08:14;32.97;;;30.95;;
13849;SDS011;6995;52.618;13.488;2023-07-29T00:10:40;29.17;;;27.38;;
13849;SDS011;6995;52.618;13.488;2023-07-29T00:13:06;27.63;;;26.00;;
13849;SDS011;6995;52.618;13.488;2023-07-29T00:15:32;29.65;;;27.75;;
13849;SDS011;6995;52.618;13.488;2023-07-29T00:17:58;29.98;;;28.15;;
13849;SDS011;6995;52.618;13.488;2023-07-29T00:20:24;30.52;;;28.73;;
13849;SDS011;6995;52.618;13.488;2023-07-29T00:22:49;30.52;;;28.73;;
13849;SDS011;6995;52.618;13.488;2023-07-29T00:25:18;32.60;;;30.50;;
13849;SDS011;6995;52.618;13.488;2023-07-29T00:27:43;32.10;;;30.20;;
13849;SDS011;6995;52.618;13.488;2023-07-29T00:30:09;32.92;;;30.75;;
13849;SDS011;6995;52.618;13.488;2023-07-29T00:32:35;30.48;;;28.67;;
13849;SDS011;6995;52.618;13.488;2023-07-29T00:35:01;33.13;;;31.23;;
13849;SDS011;6995;52.618;13.488;2023-07-29T00:37:27;32.67;;;30.52;;
13849;SDS011;6995;52.618;13.488;2023-07-29T00:39:53;32.60;;;30.67;;
13849;SDS011;6995;52.618;13.488;2023-07-29T00:42:19;32.78;;;30.83;;
13849;SDS011;6995;52.618;13.488;2023-07-29T00:44:45;32.90;;;30.65;;
13849;SDS011;6995;52.618;13.488;2023-07-29T00:47:10;29.08;;;27.38;;
13849;SDS011;6995;52.618;13.488;2023-07-29T00:49:37;31.27;;;29.48;;
13849;SDS011;6995;52.618;13.488;2023-07-29T00:52:03;29.30;;;27.50;;
13849;SDS011;6995;52.618;13.488;2023-07-29T00:54:29;28.75;;;27.15;;
13849;SDS011;6995;52.618;13.488;2023-07-29T00:56:55;30.88;;;28.83;;
13849;SDS011;6995;52.618;13.488;2023-07-29T00:59:20;32.25;;;30.20;;
13849;SDS011;6995;52.618;13.488;2023-07-29T01:01:47;30.08;;;28.27;;
13849;SDS011;6995;52.618;13.488;2023-07-29T01:04:13;33.70;;;31.48;;
13849;SDS011;6995;52.618;13.488;2023-07-29T01:09:17;30.17;;;28.27;;
13849;SDS011;6995;52.618;13.488;2023-07-29T01:12:13;32.13;;;30.00;;
13849;SDS011;6995;52.618;13.488;2023-07-29T01:15:01;30.65;;;28.65;;
13849;SDS011;6995;52.618;13.488;2023-07-29T01:17:46;29.48;;;27.48;;
13849;SDS011;6995;52.618;13.488;2023-07-29T01:20:14;33.65;;;31.02;;
13849;SDS011;6995;52.618;13.488;2023-07-29T01:22:41;32.65;;;30.58;;
13849;SDS011;6995;52.618;13.488;2023-07-29T01:25:07;30.95;;;29.05;;
13849;SDS011;6995;52.618;13.488;2023-07-29T01:27:33;32.22;;;30.33;;
13849;SDS011;6995;52.618;13.488;2023-07-29T01:29:59;33.97;;;31.55;;
13849;SDS011;6995;52.618;13.488;2023-07-29T01:32:46;30.92;;;28.83;;
13849;SDS011;6995;52.618;13.488;2023-07-29T01:35:23;30.42;;;28.20;;
13849;SDS011;6995;52.618;13.488;2023-07-29T01:37:59;27.63;;;25.73;;
13849;SDS011;6995;52.618;13.488;2023-07-29T01:40:34;28.85;;;26.85;;
13849;SDS011;6995;52.618;13.488;2023-07-29T01:43:00;28.23;;;26.42;;
13849;SDS011;6995;52.618;13.488;2023-07-29T01:45:26;31.45;;;29.40;;
13849;SDS011;6995;52.618;13.488;2023-07-29T01:47:52;28.95;;;26.95;;
13849;SDS011;6995;52.618;13.488;2023-07-29T01:50:18;25.90;;;24.20;;
13849;SDS011;6995;52.618;13.488;2023-07-29T01:52:43;27.38;;;25.38;;
13849;SDS011;6995;52.618;13.488;2023-07-29T01:55:09;29.55;;;27.33;;
13849;SDS011;6995;52.618;13.488;2023-07-29T01:57:35;27.98;;;26.27;;
13849;SDS011;6995;52.618;13.488;2023-07-29T02:00:01;28.45;;;26.65;;
13849;SDS011;6995;52.618;13.488;2023-07-29T02:02:28;27.08;;;25.35;;
13849;SDS011;6995;52.618;13.488;2023-07-29T02:04:54;27.25;;;25.55;;
13849;SDS011;6995;52.618;13.488;2023-07-29T02:07:20;25.25;;;23.75;;
13849;SDS011;6995;52.618;13.488;2023-07-29T02:09:46;27.35;;;24.92;;
13849;SDS011;6995;52.618;13.488;2023-07-29T02:12:12;27.15;;;25.55;;
13849;SDS011;6995;52.618;13.488;2023-07-29T02:14:37;26.38;;;24.77;;
13849;SDS011;6995;52.618;13.488;2023-07-29T02:17:03;25.70;;;24.20;;
13849;SDS011;6995;52.618;13.488;2023-07-29T02:19:29;29.00;;;27.30;;
13849;SDS011;6995;52.618;13.488;2023-07-29T02:21:54;30.75;;;28.98;;
13849;SDS011;6995;52.618;13.488;2023-07-29T02:24:20;31.63;;;29.55;;
13849;SDS011;6995;52.618;13.488;2023-07-29T02:26:45;34.45;;;32.28;;
13849;SDS011;6995;52.618;13.488;2023-07-29T02:29:11;41.97;;;39.38;;
13849;SDS011;6995;52.618;13.488;2023-07-29T02:31:37;34.33;;;32.42;;
13849;SDS011;6995;52.618;13.488;2023-07-29T02:34:03;36.25;;;34.10;;
13849;SDS011;6995;52.618;13.488;2023-07-29T02:36:29;37.72;;;35.72;;
13849;SDS011;6995;52.618;13.488;2023-07-29T02:38:55;36.83;;;34.63;;
13849;SDS011;6995;52.618;13.488;2023-07-29T02:41:21;40.25;;;37.85;;
13849;SDS011;6995;52.618;13.488;2023-07-29T02:43:50;34.00;;;31.95;;
13849;SDS011;6995;52.618;13.488;2023-07-29T02:46:16;36.00;;;33.90;;
13849;SDS011;6995;52.618;13.488;2023-07-29T02:48:42;37.05;;;34.95;;
13849;SDS011;6995;52.618;13.488;2023-07-29T02:51:09;33.53;;;31.67;;
13849;SDS011;6995;52.618;13.488;2023-07-29T02:53:35;32.47;;;30.63;;
13849;SDS011;6995;52.618;13.488;2023-07-29T02:56:03;30.42;;;28.63;;
13849;SDS011;6995;52.618;13.488;2023-07-29T02:58:30;29.92;;;28.20;;
13849;SDS011;6995;52.618;13.488;2023-07-29T03:01:02;28.95;;;27.30;;
13849;SDS011;6995;52.618;13.488;2023-07-29T03:03:28;30.25;;;28.52;;
13849;SDS011;6995;52.618;13.488;2023-07-29T03:06:01;29.60;;;28.02;;
13849;SDS011;6995;52.618;13.488;2023-07-29T03:08:28;30.23;;;28.58;;
13849;SDS011;6995;52.618;13.488;2023-07-29T03:10:54;30.52;;;28.80;;
13849;SDS011;6995;52.618;13.488;2023-07-29T03:13:21;33.80;;;31.75;;
13849;SDS011;6995;52.618;13.488;2023-07-29T03:15:46;34.83;;;32.55;;
13849;SDS011;6995;52.618;13.488;2023-07-29T03:18:12;31.98;;;30.13;;
13849;SDS011;6995;52.618;13.488;2023-07-29T03:20:37;38.85;;;36.63;;
13849;SDS011;6995;52.618;13.488;2023-07-29T03:23:03;41.42;;;38.97;;
13849;SDS011;6995;52.618;13.488;2023-07-29T03:25:28;37.00;;;34.80;;
13849;SDS011;6995;52.618;13.488;2023-07-29T03:27:54;39.17;;;36.80;;
13849;SDS011;6995;52.618;13.488;2023-07-29T03:30:20;44.35;;;41.95;;
13849;SDS011;6995;52.618;13.488;2023-07-29T03:32:47;42.40;;;39.75;;
13849;SDS011;6995;52.618;13.488;2023-07-29T03:35:14;43.70;;;41.10;;
13849;SDS011;6995;52.618;13.488;2023-07-29T03:37:40;47.45;;;44.60;;
13849;SDS011;6995;52.618;13.488;2023-07-29T03:40:06;51.40;;;47.97;;
13849;SDS011;6995;52.618;13.488;2023-07-29T03:42:32;44.70;;;42.08;;
13849;SDS011;6995;52.618;13.488;2023-07-29T03:44:58;41.70;;;38.95;;
13849;SDS011;6995;52.618;13.488;2023-07-29T03:47:23;42.88;;;40.30;;
13849;SDS011;6995;52.618;13.488;2023-07-29T03:49:49;44.17;;;41.28;;
13849;SDS011;6995;52.618;13.488;2023-07-29T03:52:15;37.83;;;35.35;;
13849;SDS011;6995;52.618;13.488;2023-07-29T03:54:40;36.33;;;33.80;;
13849;SDS011;6995;52.618;13.488;2023-07-29T03:57:06;33.97;;;31.67;;
13849;SDS011;6995;52.618;13.488;2023-07-29T03:59:31;32.22;;;30.13;;
13849;SDS011;6995;52.618;13.488;2023-07-29T04:01:57;35.05;;;32.40;;
13849;SDS011;6995;52.618;13.488;2023-07-29T04:04:23;31.85;;;29.85;;
13849;SDS011;6995;52.618;13.488;2023-07-29T04:06:48;32.20;;;30.00;;
13849;SDS011;6995;52.618;13.488;2023-07-29T04:09:14;33.88;;;31.33;;
13849;SDS011;6995;52.618;13.488;2023-07-29T04:11:39;32.83;;;30.65;;
13849;SDS011;6995;52.618;13.488;2023-07-29T04:14:05;32.70;;;30.50;;
13849;SDS011;6995;52.618;13.488;2023-07-29T04:16:31;30.90;;;28.80;;
13849;SDS011;6995;52.618;13.488;2023-07-29T04:18:57;32.85;;;30.85;;
13849;SDS011;6995;52.618;13.488;2023-07-29T04:21:22;34.35;;;32.40;;
13849;SDS011;6995;52.618;13.488;2023-07-29T04:23:48;30.38;;;28.48;;
13849;SDS011;6995;52.618;13.488;2023-07-29T04:26:13;30.30;;;28.55;;
13849;SDS011;6995;52.618;13.488;2023-07-29T04:28:39;29.30;;;27.33;;
13849;SDS011;6995;52.618;13.488;2023-07-29T04:31:05;27.92;;;26.23;;
13849;SDS011;6995;52.618;13.488;2023-07-29T04:33:30;28.25;;;26.42;;
13849;SDS011;6995;52.618;13.488;2023-07-29T04:35:56;28.92;;;27.02;;
13849;SDS011;6995;52.618;13.488;2023-07-29T04:38:23;27.98;;;26.17;;
13849;SDS011;6995;52.618;13.488;2023-07-29T04:40:52;26.25;;;24.55;;
13849;SDS011;6995;52.618;13.488;2023-07-29T04:43:18;29.08;;;26.88;;
13849;SDS011;6995;52.618;13.488;2023-07-29T04:45:43;30.30;;;28.20;;
13849;SDS011;6995;52.618;13.488;2023-07-29T04:48:09;29.60;;;27.73;;
13849;SDS011;6995;52.618;13.488;2023-07-29T04:50:35;31.02;;;28.80;;
13849;SDS011;6995;52.618;13.488;2023-07-29T04:53:00;30.02;;;27.85;;
13849;SDS011;6995;52.618;13.488;2023-07-29T04:55:26;29.65;;;27.50;;
13849;SDS011;6995;52.618;13.488;2023-07-29T04:57:51;28.13;;;26.30;;
13849;SDS011;6995;52.618;13.488;2023-07-29T05:00:17;30.92;;;28.60;;
13849;SDS011;6995;52.618;13.488;2023-07-29T05:02:43;28.83;;;26.73;;
13849;SDS011;6995;52.618;13.488;2023-07-29T05:05:08;33.08;;;30.98;;
13849;SDS011;6995;52.618;13.488;2023-07-29T05:07:34;30.23;;;28.20;;
13849;SDS011;6995;52.618;13.488;2023-07-29T05:09:59;30.30;;;28.23;;
13849;SDS011;6995;52.618;13.488;2023-07-29T05:12:25;30.60;;;28.77;;
13849;SDS011;6995;52.618;13.488;2023-07-29T05:14:51;33.17;;;31.15;;
13849;SDS011;6995;52.618;13.488;2023-07-29T05:17:16;29.65;;;27.88;;
13849;SDS011;6995;52.618;13.488;2023-07-29T05:19:42;29.13;;;27.33;;
13849;SDS011;6995;52.618;13.488;2023-07-29T05:22:08;28.98;;;27.23;;
13849;SDS011;6995;52.618;13.488;2023-07-29T05:24:35;28.58;;;26.77;;
13849;SDS011;6995;52.618;13.488;2023-07-29T05:27:00;27.63;;;25.83;;
13849;SDS011;6995;52.618;13.488;2023-07-29T05:29:26;29.52;;;27.58;;
13849;SDS011;6995;52.618;13.488;2023-07-29T05:31:51;27.90;;;26.10;;
13849;SDS011;6995;52.618;13.488;2023-07-29T05:34:17;29.98;;;28.05;;
13849;SDS011;6995;52.618;13.488;2023-07-29T05:36:43;32.42;;;30.17;;
13849;SDS011;6995;52.618;13.488;2023-07-29T05:39:08;29.13;;;27.30;;
13849;SDS011;6995;52.618;13.488;2023-07-29T05:41:34;31.52;;;29.52;;
13849;SDS011;6995;52.618;13.488;2023-07-29T05:43:59;31.02;;;29.23;;
13849;SDS011;6995;52.618;13.488;2023-07-29T05:46:25;31.40;;;29.50;;
13849;SDS011;6995;52.618;13.488;2023-07-29T05:48:51;31.55;;;29.48;;
13849;SDS011;6995;52.618;13.488;2023-07-29T05:51:17;27.88;;;25.90;;
13849;SDS011;6995;52.618;13.488;2023-07-29T05:53:42;29.67;;;27.48;;
13849;SDS011;6995;52.618;13.488;2023-07-29T05:56:08;30.35;;;28.15;;
13849;SDS011;6995;52.618;13.488;2023-07-29T05:58:36;31.08;;;29.08;;
13849;SDS011;6995;52.618;13.488;2023-07-29T06:01:02;32.58;;;30.42;;
13849;SDS011;6995;52.618;13.488;2023-07-29T06:03:28;30.65;;;28.65;;
13849;SDS011;6995;52.618;13.488;2023-07-29T06:05:53;29.02;;;27.23;;
13849;SDS011;6995;52.618;13.488;2023-07-29T06:08:19;29.83;;;28.02;;
13849;SDS011;6995;52.618;13.488;2023-07-29T06:10:45;28.95;;;27.15;;
13849;SDS011;6995;52.618;13.488;2023-07-29T06:13:10;29.40;;;27.25;;
13849;SDS011;6995;52.618;13.488;2023-07-29T06:15:36;29.13;;;27.40;;
13849;SDS011;6995;52.618;13.488;2023-07-29T06:18:02;30.42;;;28.48;;
13849;SDS011;6995;52.618;13.488;2023-07-29T06:20:28;27.63;;;25.83;;
13849;SDS011;6995;52.618;13.488;2023-07-29T06:22:53;27.35;;;25.55;;
13849;SDS011;6995;52.618;13.488;2023-07-29T06:25:19;28.88;;;27.00;;
13849;SDS011;6995;52.618;13.488;2023-07-29T06:27:44;30.15;;;28.13;;
13849;SDS011;6995;52.618;13.488;2023-07-29T06:30:10;31.38;;;29.08;;
13849;SDS011;6995;52.618;13.488;2023-07-29T06:32:36;32.63;;;30.52;;
13849;SDS011;6995;52.618;13.488;2023-07-29T06:35:01;29.10;;;27.40;;
13849;SDS011;6995;52.618;13.488;2023-07-29T06:37:27;33.03;;;31.10;;
13849;SDS011;6995;52.618;13.488;2023-07-29T06:39:53;28.48;;;26.85;;
13849;SDS011;6995;52.618;13.488;2023-07-29T06:42:18;32.80;;;30.90;;
13849;SDS011;6995;52.618;13.488;2023-07-29T06:44:44;35.15;;;33.15;;
13849;SDS011;6995;52.618;13.488;2023-07-29T06:47:11;35.05;;;32.85;;
13849;SDS011;6995;52.618;13.488;2023-07-29T06:49:36;36.22;;;34.00;;
13849;SDS011;6995;52.618;13.488;2023-07-29T06:52:02;35.22;;;33.22;;
13849;SDS011;6995;52.618;13.488;2023-07-29T06:54:28;34.40;;;32.60;;
13849;SDS011;6995;52.618;13.488;2023-07-29T06:56:53;36.67;;;34.42;;
13849;SDS011;6995;52.618;13.488;2023-07-29T06:59:19;38.15;;;35.90;;
13849;SDS011;6995;52.618;13.488;2023-07-29T07:01:45;37.83;;;35.53;;
13849;SDS011;6995;52.618;13.488;2023-07-29T07:04:11;38.08;;;35.70;;
13849;SDS011;6995;52.618;13.488;2023-07-29T07:06:36;36.15;;;34.03;;
13849;SDS011;6995;52.618;13.488;2023-07-29T07:09:02;32.90;;;30.90;;
13849;SDS011;6995;52.618;13.488;2023-07-29T07:11:28;30.70;;;28.92;;
13849;SDS011;6995;52.618;13.488;2023-07-29T07:13:53;30.25;;;28.45;;
13849;SDS011;6995;52.618;13.488;2023-07-29T07:16:19;30.08;;;28.17;;
13849;SDS011;6995;52.618;13.488;2023-07-29T07:18:44;29.13;;;27.55;;
13849;SDS011;6995;52.618;13.488;2023-07-29T07:21:10;30.50;;;28.83;;
13849;SDS011;6995;52.618;13.488;2023-07-29T07:23:36;31.50;;;29.70;;
13849;SDS011;6995;52.618;13.488;2023-07-29T07:26:01;27.73;;;26.15;;
13849;SDS011;6995;52.618;13.488;2023-07-29T07:28:27;29.52;;;27.95;;
13849;SDS011;6995;52.618;13.488;2023-07-29T07:30:53;31.25;;;29.55;;
13849;SDS011;6995;52.618;13.488;2023-07-29T07:33:20;27.30;;;25.70;;
13849;SDS011;6995;52.618;13.488;2023-07-29T07:35:46;33.33;;;31.55;;
13849;SDS011;6995;52.618;13.488;2023-07-29T07:38:12;27.92;;;26.48;;
13849;SDS011;6995;52.618;13.488;2023-07-29T07:40:37;33.40;;;31.60;;
13849;SDS011;6995;52.618;13.488;2023-07-29T07:43:03;38.90;;;36.80;;
13849;SDS011;6995;52.618;13.488;2023-07-29T07:45:29;36.78;;;34.47;;
13849;SDS011;6995;52.618;13.488;2023-07-29T07:47:56;33.53;;;31.52;;
13849;SDS011;6995;52.618;13.488;2023-07-29T07:50:22;29.23;;;27.63;;
13849;SDS011;6995;52.618;13.488;2023-07-29T07:52:49;28.50;;;26.90;;
13849;SDS011;6995;52.618;13.488;2023-07-29T07:55:14;30.55;;;28.85;;
13849;SDS011;6995;52.618;13.488;2023-07-29T07:57:40;30.55;;;28.80;;
13849;SDS011;6995;52.618;13.488;2023-07-29T08:00:06;31.95;;;30.08;;
13849;SDS011;6995;52.618;13.488;2023-07-29T08:02:32;34.92;;;32.90;;
13849;SDS011;6995;52.618;13.488;2023-07-29T08:04:57;31.48;;;29.83;;
13849;SDS011;6995;52.618;13.488;2023-07-29T08:07:23;30.33;;;28.52;;
13849;SDS011;6995;52.618;13.488;2023-07-29T08:09:49;28.98;;;27.05;;
13849;SDS011;6995;52.618;13.488;2023-07-29T08:12:14;30.90;;;29.00;;
13849;SDS011;6995;52.618;13.488;2023-07-29T08:14:40;28.33;;;26.52;;
13849;SDS011;6995;52.618;13.488;2023-07-29T08:17:06;26.02;;;24.33;;
13849;SDS011;6995;52.618;13.488;2023-07-29T08:19:31;30.85;;;29.05;;
13849;SDS011;6995;52.618;13.488;2023-07-29T08:21:57;25.30;;;23.73;;
13849;SDS011;6995;52.618;13.488;2023-07-29T08:24:23;26.15;;;24.55;;
13849;SDS011;6995;52.618;13.488;2023-07-29T08:26:49;24.73;;;22.92;;
13849;SDS011;6995;52.618;13.488;2023-07-29T08:29:14;25.88;;;24.27;;
13849;SDS011;6995;52.618;13.488;2023-07-29T08:31:40;26.05;;;24.55;;
13849;SDS011;6995;52.618;13.488;2023-07-29T08:34:05;25.45;;;23.42;;
13849;SDS011;6995;52.618;13.488;2023-07-29T08:36:32;26.92;;;25.23;;
13849;SDS011;6995;52.618;13.488;2023-07-29T08:38:57;27.63;;;26.02;;
13849;SDS011;6995;52.618;13.488;2023-07-29T08:41:27;25.75;;;24.00;;
13849;SDS011;6995;52.618;13.488;2023-07-29T08:46:51;26.40;;;24.80;;
13849;SDS011;6995;52.618;13.488;2023-07-29T08:49:18;25.88;;;24.08;;
13849;SDS011;6995;52.618;13.488;2023-07-29T08:51:46;25.60;;;23.95;;
13849;SDS011;6995;52.618;13.488;2023-07-29T08:54:13;25.70;;;24.15;;
13849;SDS011;6995;52.618;13.488;2023-07-29T08:56:40;27.08;;;25.42;;
13849;SDS011;6995;52.618;13.488;2023-07-29T08:59:07;27.25;;;25.67;;
13849;SDS011;6995;52.618;13.488;2023-07-29T09:01:33;26.50;;;25.00;;
13849;SDS011;6995;52.618;13.488;2023-07-29T09:03:59;26.17;;;24.45;;
13849;SDS011;6995;52.618;13.488;2023-07-29T09:06:25;24.95;;;23.52;;
13849;SDS011;6995;52.618;13.488;2023-07-29T09:08:52;24.70;;;23.30;;
13849;SDS011;6995;52.618;13.488;2023-07-29T09:11:19;24.33;;;22.83;;
13849;SDS011;6995;52.618;13.488;2023-07-29T09:13:46;24.83;;;23.42;;
13849;SDS011;6995;52.618;13.488;2023-07-29T09:16:12;24.08;;;22.77;;
13849;SDS011;6995;52.618;13.488;2023-07-29T09:18:38;25.73;;;24.23;;
13849;SDS011;6995;52.618;13.488;2023-07-29T09:21:04;23.42;;;22.13;;
13849;SDS011;6995;52.618;13.488;2023-07-29T09:23:42;23.70;;;22.30;;
13849;SDS011;6995;52.618;13.488;2023-07-29T09:26:08;28.17;;;26.27;;
13849;SDS011;6995;52.618;13.488;2023-07-29T09:28:34;28.85;;;27.27;;
13849;SDS011;6995;52.618;13.488;2023-07-29T09:31:02;28.73;;;27.13;;
13849;SDS011;6995;52.618;13.488;2023-07-29T09:33:37;27.90;;;26.27;;
13849;SDS011;6995;52.618;13.488;2023-07-29T09:36:08;31.27;;;29.48;;
13849;SDS011;6995;52.618;13.488;2023-07-29T09:38:34;37.70;;;35.70;;
13849;SDS011;6995;52.618;13.488;2023-07-29T09:41:01;30.08;;;28.48;;
13849;SDS011;6995;52.618;13.488;2023-07-29T09:43:30;33.25;;;31.58;;
13849;SDS011;6995;52.618;13.488;2023-07-29T09:46:04;27.27;;;25.88;;
13849;SDS011;6995;52.618;13.488;2023-07-29T09:48:35;43.30;;;41.17;;
13849;SDS011;6995;52.618;13.488;2023-07-29T09:51:11;29.35;;;27.83;;
13849;SDS011;6995;52.618;13.488;2023-07-29T09:53:45;27.25;;;25.75;;
13849;SDS011;6995;52.618;13.488;2023-07-29T09:56:11;25.40;;;24.00;;
13849;SDS011;6995;52.618;13.488;2023-07-29T09:58:38;32.85;;;31.05;;
13849;SDS011;6995;52.618;13.488;2023-07-29T10:01:07;27.05;;;25.65;;
13849;SDS011;6995;52.618;13.488;2023-07-29T10:03:33;30.45;;;28.88;;
13849;SDS011;6995;52.618;13.488;2023-07-29T10:06:04;29.55;;;27.83;;
13849;SDS011;6995;52.618;13.488;2023-07-29T10:08:31;28.23;;;26.73;;
13849;SDS011;6995;52.618;13.488;2023-07-29T10:11:01;26.15;;;24.85;;
13849;SDS011;6995;52.618;13.488;2023-07-29T10:13:27;27.48;;;25.85;;
13849;SDS011;6995;52.618;13.488;2023-07-29T10:15:56;25.55;;;24.08;;
13849;SDS011;6995;52.618;13.488;2023-07-29T10:18:22;26.48;;;24.98;;
13849;SDS011;6995;52.618;13.488;2023-07-29T10:20:50;28.02;;;26.52;;
13849;SDS011;6995;52.618;13.488;2023-07-29T10:23:17;27.67;;;26.15;;
13849;SDS011;6995;52.618;13.488;2023-07-29T10:25:47;25.20;;;23.73;;
13849;SDS011;6995;52.618;13.488;2023-07-29T10:28:17;27.75;;;26.15;;
13849;SDS011;6995;52.618;13.488;2023-07-29T10:30:46;36.67;;;34.90;;
13849;SDS011;6995;52.618;13.488;2023-07-29T10:33:12;23.35;;;22.05;;
13849;SDS011;6995;52.618;13.488;2023-07-29T10:35:38;21.90;;;20.60;;
13849;SDS011;6995;52.618;13.488;2023-07-29T10:38:05;22.77;;;21.67;;
13849;SDS011;6995;52.618;13.488;2023-07-29T10:40:45;26.60;;;25.23;;
13849;SDS011;6995;52.618;13.488;2023-07-29T10:43:12;22.27;;;21.17;;
13849;SDS011;6995;52.618;13.488;2023-07-29T10:45:43;31.42;;;29.85;;
13849;SDS011;6995;52.618;13.488;2023-07-29T10:48:13;25.45;;;24.20;;
13849;SDS011;6995;52.618;13.488;2023-07-29T10:54:10;32.80;;;30.98;;
13849;SDS011;6995;52.618;13.488;2023-07-29T10:56:40;31.58;;;29.90;;
13849;SDS011;6995;52.618;13.488;2023-07-29T11:01:41;22.20;;;21.10;;
13849;SDS011;6995;52.618;13.488;2023-07-29T11:15:23;27.65;;;26.35;;
13849;SDS011;6995;52.618;13.488;2023-07-29T11:17:57;20.75;;;19.35;;
13849;SDS011;6995;52.618;13.488;2023-07-29T11:22:54;22.73;;;21.73;;
13849;SDS011;6995;52.618;13.488;2023-07-29T11:25:22;21.42;;;20.42;;
13849;SDS011;6995;52.618;13.488;2023-07-29T11:27:49;20.58;;;19.58;;
13849;SDS011;6995;52.618;13.488;2023-07-29T11:30:16;32.40;;;29.95;;
13849;SDS011;6995;52.618;13.488;2023-07-29T11:32:43;21.77;;;20.67;;
13849;SDS011;6995;52.618;13.488;2023-07-29T11:35:14;27.83;;;26.23;;
13849;SDS011;6995;52.618;13.488;2023-07-29T11:37:41;26.17;;;24.50;;
13849;SDS011;6995;52.618;13.488;2023-07-29T11:40:12;25.35;;;23.33;;
13849;SDS011;6995;52.618;13.488;2023-07-29T11:42:48;22.77;;;21.33;;
13849;SDS011;6995;52.618;13.488;2023-07-29T11:45:18;24.95;;;23.40;;
13849;SDS011;6995;52.618;13.488;2023-07-29T11:47:45;26.88;;;25.48;;
13849;SDS011;6995;52.618;13.488;2023-07-29T11:50:11;26.50;;;25.00;;
13849;SDS011;6995;52.618;13.488;2023-07-29T11:52:42;27.05;;;25.65;;
13849;SDS011;6995;52.618;13.488;2023-07-29T11:55:09;28.83;;;27.23;;
13849;SDS011;6995;52.618;13.488;2023-07-29T11:57:36;29.60;;;28.05;;
13849;SDS011;6995;52.618;13.488;2023-07-29T12:00:03;28.08;;;26.45;;
13849;SDS011;6995;52.618;13.488;2023-07-29T12:02:36;24.10;;;22.58;;
13849;SDS011;6995;52.618;13.488;2023-07-29T12:05:04;28.48;;;27.08;;
13849;SDS011;6995;52.618;13.488;2023-07-29T12:07:30;27.98;;;26.38;;
13849;SDS011;6995;52.618;13.488;2023-07-29T12:09:58;31.13;;;29.45;;
13849;SDS011;6995;52.618;13.488;2023-07-29T12:12:24;25.98;;;24.35;;
13849;SDS011;6995;52.618;13.488;2023-07-29T12:14:50;24.30;;;23.10;;
13849;SDS011;6995;52.618;13.488;2023-07-29T12:17:15;23.67;;;22.48;;
13849;SDS011;6995;52.618;13.488;2023-07-29T12:19:41;21.65;;;20.52;;
13849;SDS011;6995;52.618;13.488;2023-07-29T12:22:08;21.17;;;20.17;;
13849;SDS011;6995;52.618;13.488;2023-07-29T12:24:35;20.48;;;19.35;;
13849;SDS011;6995;52.618;13.488;2023-07-29T12:27:05;22.63;;;21.27;;
13849;SDS011;6995;52.618;13.488;2023-07-29T12:29:39;20.90;;;19.80;;
13849;SDS011;6995;52.618;13.488;2023-07-29T12:32:05;23.02;;;21.75;;
13849;SDS011;6995;52.618;13.488;2023-07-29T12:34:31;24.52;;;23.20;;
13849;SDS011;6995;52.618;13.488;2023-07-29T12:36:57;23.80;;;22.40;;
13849;SDS011;6995;52.618;13.488;2023-07-29T12:39:25;25.27;;;23.88;;
13849;SDS011;6995;52.618;13.488;2023-07-29T12:41:57;22.38;;;21.23;;
13849;SDS011;6995;52.618;13.488;2023-07-29T12:44:23;23.88;;;22.67;;
13849;SDS011;6995;52.618;13.488;2023-07-29T12:46:50;24.10;;;22.95;;
13849;SDS011;6995;52.618;13.488;2023-07-29T12:49:16;24.30;;;22.90;;
13849;SDS011;6995;52.618;13.488;2023-07-29T12:51:42;22.05;;;20.70;;
13849;SDS011;6995;52.618;13.488;2023-07-29T12:54:08;21.60;;;20.23;;
13849;SDS011;6995;52.618;13.488;2023-07-29T12:56:36;21.55;;;20.52;;
13849;SDS011;6995;52.618;13.488;2023-07-29T12:59:02;21.40;;;20.13;;
13849;SDS011;6995;52.618;13.488;2023-07-29T13:01:28;20.90;;;19.80;;
13849;SDS011;6995;52.618;13.488;2023-07-29T13:03:54;32.47;;;30.88;;
13849;SDS011;6995;52.618;13.488;2023-07-29T13:06:21;34.90;;;33.28;;
13849;SDS011;6995;52.618;13.488;2023-07-29T13:08:46;27.45;;;26.10;;
13849;SDS011;6995;52.618;13.488;2023-07-29T13:11:13;25.30;;;23.83;;
13849;SDS011;6995;52.618;13.488;2023-07-29T13:13:39;21.35;;;20.17;;
13849;SDS011;6995;52.618;13.488;2023-07-29T13:16:04;24.42;;;23.10;;
13849;SDS011;6995;52.618;13.488;2023-07-29T13:18:31;23.40;;;22.20;;
13849;SDS011;6995;52.618;13.488;2023-07-29T13:20:57;32.83;;;30.95;;
13849;SDS011;6995;52.618;13.488;2023-07-29T13:23:23;30.38;;;28.90;;
13849;SDS011;6995;52.618;13.488;2023-07-29T13:25:49;31.55;;;30.02;;
13849;SDS011;6995;52.618;13.488;2023-07-29T13:28:15;20.98;;;19.77;;
13849;SDS011;6995;52.618;13.488;2023-07-29T13:30:41;25.17;;;23.80;;
13849;SDS011;6995;52.618;13.488;2023-07-29T13:33:07;24.27;;;22.95;;
13849;SDS011;6995;52.618;13.488;2023-07-29T13:35:33;24.67;;;23.38;;
13849;SDS011;6995;52.618;13.488;2023-07-29T13:37:59;22.67;;;21.30;;
13849;SDS011;6995;52.618;13.488;2023-07-29T13:40:25;22.27;;;20.77;;
13849;SDS011;6995;52.618;13.488;2023-07-29T13:42:50;21.40;;;20.13;;
13849;SDS011;6995;52.618;13.488;2023-07-29T13:45:17;22.90;;;21.60;;
13849;SDS011;6995;52.618;13.488;2023-07-29T13:47:43;21.02;;;19.90;;
13849;SDS011;6995;52.618;13.488;2023-07-29T13:50:09;23.75;;;22.50;;
13849;SDS011;6995;52.618;13.488;2023-07-29T13:52:35;26.60;;;25.30;;
13849;SDS011;6995;52.618;13.488;2023-07-29T13:55:01;26.05;;;24.83;;
13849;SDS011;6995;52.618;13.488;2023-07-29T13:57:28;56.72;;;54.10;;
13849;SDS011;6995;52.618;13.488;2023-07-29T13:59:53;40.45;;;38.42;;
13849;SDS011;6995;52.618;13.488;2023-07-29T14:02:19;45.90;;;43.85;;
13849;SDS011;6995;52.618;13.488;2023-07-29T14:04:45;50.03;;;47.65;;
13849;SDS011;6995;52.618;13.488;2023-07-29T14:07:10;24.08;;;22.83;;
13849;SDS011;6995;52.618;13.488;2023-07-29T14:09:36;20.73;;;19.63;;
13849;SDS011;6995;52.618;13.488;2023-07-29T14:12:03;26.67;;;25.23;;
13849;SDS011;6995;52.618;13.488;2023-07-29T14:14:29;22.08;;;20.98;;
13849;SDS011;6995;52.618;13.488;2023-07-29T14:16:55;29.02;;;27.63;;
13849;SDS011;6995;52.618;13.488;2023-07-29T14:19:21;38.58;;;36.80;;
13849;SDS011;6995;52.618;13.488;2023-07-29T14:21:47;35.00;;;33.40;;
13849;SDS011;6995;52.618;13.488;2023-07-29T14:24:13;40.00;;;38.15;;
13849;SDS011;6995;52.618;13.488;2023-07-29T14:26:39;41.13;;;39.28;;
13849;SDS011;6995;52.618;13.488;2023-07-29T14:29:05;44.33;;;42.40;;
13849;SDS011;6995;52.618;13.488;2023-07-29T14:31:31;32.17;;;30.60;;
13849;SDS011;6995;52.618;13.488;2023-07-29T14:33:56;24.33;;;23.20;;
13849;SDS011;6995;52.618;13.488;2023-07-29T14:36:24;22.77;;;21.30;;
13849;SDS011;6995;52.618;13.488;2023-07-29T14:38:49;29.95;;;28.55;;
13849;SDS011;6995;52.618;13.488;2023-07-29T14:41:15;21.27;;;20.08;;
13849;SDS011;6995;52.618;13.488;2023-07-29T14:43:41;22.02;;;20.92;;
13849;SDS011;6995;52.618;13.488;2023-07-29T14:46:06;26.88;;;25.60;;